Time;durP1;ratioP1;P1;durP2;ratioP2;P2;SDS_P1;SDS_P2;PMS_P1;PMS_P2;Temp;Humidity;BMP_temperature;BMP_pressure;BME280_temperature;BME280_humidity;BME280_pressure;Samples;Min_cycle;Max_cycle;Signal;HPM_P1;HPM_P2
2021/03/06 00:12:34;;;;;;;5.72;2.05;;;;;;;-0.69;59.42;100881.86;1780855;78;21136;-48
2021/03/06 00:15:05;;;;;;;6.30;2.80;;;;;;;-0.71;59.30;100884.52;1767673;78;21340;-48
2021/03/06 00:17:56;;;;;;;4.83;2.45;;;;;;;-0.72;59.44;100885.84;1723337;78;22049;-48
2021/03/06 00:20:24;;;;;;;7.45;2.58;;;;;;;-0.71;59.55;100888.84;1765088;78;21590;-49
2021/03/06 00:32:09;;;;;;;;;;;;;;;-0.78;59.05;100890.77;1790533;78;21004;-49
2021/03/06 00:34:36;;;;;;;5.65;2.02;;;;;;;-0.84;58.95;100884.44;1784599;77;20467;-50
2021/03/06 00:37:34;;;;;;;3.90;1.60;;;;;;;-0.93;58.45;100892.88;1750655;77;21578;-49
2021/03/06 00:40:05;;;;;;;5.58;1.92;;;;;;;-1.05;58.27;100886.23;1777803;77;21124;-49
2021/03/06 00:48:39;;;;;;;3.65;1.85;;;;;;;-1.16;58.18;100889.59;1744338;80;21153;-49
2021/03/06 00:51:07;;;;;;;3.55;1.40;;;;;;;-1.22;58.17;100885.38;1741318;78;21991;-48
2021/03/06 00:53:40;;;;;;;4.58;1.90;;;;;;;-1.25;57.91;100885.45;1739532;80;21137;-48
2021/03/06 00:56:10;;;;;;;2.77;1.40;;;;;;;-1.30;57.69;100894.27;1737556;80;21141;-49
2021/03/06 00:58:38;;;;;;;3.90;1.70;;;;;;;-1.31;57.76;100896.45;1772385;78;21523;-49
2021/03/06 01:01:35;;;;;;;5.60;1.62;;;;;;;-1.32;57.66;100893.45;1766446;78;21509;-48
2021/03/06 01:04:12;;;;;;;3.80;1.60;;;;;;;-1.36;57.62;100893.52;1779497;77;21241;31
2021/03/06 01:21:39;;;;;;;4.45;1.72;;;;;;;-1.39;56.29;100896.20;1695215;83;21144;-48
2021/03/06 01:24:09;;;;;;;5.10;2.22;;;;;;;-1.38;56.08;100893.14;1749095;78;21837;-48
2021/03/06 01:27:26;;;;;;;4.78;1.92;;;;;;;-1.39;55.73;100894.90;1772674;78;21014;-50
2021/03/06 01:29:55;;;;;;;5.58;2.10;;;;;;;-1.40;55.68;100897.09;1769639;77;21110;-50
2021/03/06 01:32:43;;;;;;;4.85;2.10;;;;;;;-1.37;55.75;100895.72;1807813;77;21257;31
2021/03/06 01:35:13;;;;;;;4.70;1.60;;;;;;;-1.36;55.43;100890.93;1769281;77;21403;-50
2021/03/06 01:43:47;;;;;;;3.90;1.50;;;;;;;-1.46;54.63;100898.53;1765850;76;21583;-49
2021/03/06 01:46:16;;;;;;;3.17;1.40;;;;;;;-1.50;54.45;100899.03;1758768;79;21232;-48
2021/03/06 01:57:44;;;;;;;4.90;1.90;;;;;;;-1.56;54.00;100916.51;1746801;79;21162;-50
2021/03/06 02:03:30;;;;;;;4.12;1.70;;;;;;;-1.54;54.24;100919.47;1747547;79;21621;-49
2021/03/06 02:06:00;;;;;;;5.20;1.90;;;;;;;-1.57;54.48;100922.59;1778740;78;21191;-48
2021/03/06 02:08:28;;;;;;;5.45;1.90;;;;;;;-1.59;54.81;100929.09;1749914;78;21441;-49
2021/03/06 02:10:56;;;;;;;4.97;1.77;;;;;;;-1.58;54.92;100936.46;1773393;77;21163;-49
2021/03/06 02:13:51;;;;;;;4.55;1.82;;;;;;;-1.59;55.12;100939.95;1723708;82;21428;-49
2021/03/06 02:16:40;;;;;;;5.47;1.90;;;;;;;-1.61;55.36;100941.30;1748474;79;21256;-48
2021/03/06 02:32:00;;;;;;;7.30;2.70;;;;;;;-1.88;56.52;100972.57;1718019;80;21612;-49
2021/03/06 02:34:31;;;;;;;3.87;1.98;;;;;;;-1.95;56.93;100973.16;1737124;79;21592;-49
2021/03/06 02:37:17;;;;;;;7.53;2.12;;;;;;;-2.00;56.99;100971.94;1775010;77;26940;31
2021/03/06 02:54:46;;;;;;;5.87;1.60;;;;;;;-2.27;57.64;100991.50;1727192;79;21165;-49
2021/03/06 03:12:34;;;;;;;5.37;1.95;;;;;;;-2.41;57.55;101019.84;1745846;78;21007;-49
2021/03/06 03:15:19;;;;;;;4.15;1.98;;;;;;;-2.43;57.61;101019.02;1691485;83;21161;-49
2021/03/06 03:17:49;;;;;;;4.67;1.90;;;;;;;-2.39;57.79;101024.55;1717139;78;21924;-47
2021/03/06 03:44:19;;;;;;;7.03;2.10;;;;;;;-2.52;57.19;101033.42;1776786;77;21165;-49
2021/03/06 03:49:50;;;;;;;5.25;1.98;;;;;;;-2.60;57.53;101037.46;1769215;77;21002;-49
2021/03/06 03:52:23;;;;;;;7.33;1.95;;;;;;;-2.61;57.64;101041.36;1788757;77;21228;31
2021/03/06 03:54:51;;;;;;;6.05;1.85;;;;;;;-2.62;57.69;101039.65;1772702;76;21130;-49
2021/03/06 03:57:20;;;;;;;5.20;1.95;;;;;;;-2.63;57.75;101039.23;1789893;77;21104;-50
2021/03/06 03:59:49;;;;;;;5.03;2.05;;;;;;;-2.61;57.77;101046.12;1790295;78;21888;-49
2021/03/06 04:02:22;;;;;;;4.67;1.92;;;;;;;-2.62;57.74;101047.00;1806017;76;21128;-50
2021/03/06 04:04:51;;;;;;;6.67;1.77;;;;;;;-2.64;57.70;101047.47;1809580;77;21596;-50
2021/03/06 04:07:20;;;;;;;6.40;2.20;;;;;;;-2.63;57.77;101048.30;1818017;77;21124;-50
2021/03/06 04:21:50;;;;;;;7.22;1.90;;;;;;;-2.60;57.84;101054.31;1746422;78;28623;-50
2021/03/06 04:24:20;;;;;;;4.45;1.80;;;;;;;-2.63;58.06;101053.06;1739091;80;21141;-50
2021/03/06 04:26:50;;;;;;;3.62;1.70;;;;;;;-2.67;58.31;101053.57;1746502;79;22394;31
2021/03/06 04:32:21;;;;;;;5.17;2.20;;;;;;;-2.70;58.65;101055.34;1782551;76;21283;-49
2021/03/06 04:34:50;;;;;;;4.65;2.15;;;;;;;-2.72;58.83;101059.69;1761250;77;21867;-48
2021/03/06 04:37:21;;;;;;;5.47;2.33;;;;;;;-2.74;58.96;101066.20;1744398;79;21248;31
2021/03/06 04:54:50;;;;;;;4.97;2.17;;;;;;;-2.31;59.40;101062.03;1742236;77;21726;-49
2021/03/06 05:03:46;;;;;;;6.53;2.50;;;;;;;-1.01;59.03;101062.86;1753586;78;21185;-49
2021/03/06 05:06:14;;;;;;;5.37;2.10;;;;;;;-0.27;57.78;101074.08;1753584;79;21334;-49
2021/03/06 05:08:51;;;;;;;3.92;1.70;;;;;;;0.27;56.91;101075.66;1777527;77;21396;31
2021/03/06 05:26:20;;;;;;;4.90;2.40;;;;;;;1.58;50.67;101104.71;1766236;78;21787;-49
2021/03/06 05:28:48;;;;;;;5.40;2.42;;;;;;;1.75;50.77;101108.05;1752086;78;21184;-49
2021/03/06 05:31:20;;;;;;;3.95;2.10;;;;;;;1.84;50.10;101105.60;1771757;79;21213;31
2021/03/06 05:42:50;;;;;;;8.50;3.40;;;;;;;2.06;48.94;101121.37;1757972;78;21498;-49
2021/03/06 06:03:24;;;;;;;7.60;3.25;;;;;;;2.83;46.76;101146.94;1791850;77;21237;31
2021/03/06 06:05:52;;;;;;;;;;;;;;;2.88;46.39;101148.92;1763736;79;21602;-49
2021/03/06 06:08:40;;;;;;;6.35;2.85;;;;;;;2.95;46.48;101148.25;1780253;77;20955;31
2021/03/06 06:14:33;;;;;;;10.80;4.00;;;;;;;3.23;46.96;101164.17;1790985;77;21228;31
2021/03/06 06:17:05;;;;;;;7.70;4.22;;;;;;;3.59;45.58;101166.73;1785263;77;21153;-48
2021/03/06 06:19:40;;;;;;;7.30;4.53;;;;;;;3.65;44.94;101167.31;1778822;78;21603;31
2021/03/06 06:22:23;;;;;;;5.37;3.30;;;;;;;3.64;44.40;101168.23;1770814;77;21133;31
2021/03/06 06:25:13;;;;;;;4.95;2.87;;;;;;;3.61;43.46;101168.35;1757104;78;21231;31
2021/03/06 06:30:36;;;;;;;4.47;2.65;;;;;;;3.46;43.05;101183.36;1742419;80;21161;-49
2021/03/06 06:33:04;;;;;;;5.72;2.77;;;;;;;3.33;43.78;101180.38;1779078;78;21902;-49
2021/03/06 06:35:42;;;;;;;7.03;2.98;;;;;;;3.41;44.53;101184.86;1774143;79;21149;-49
2021/03/06 06:38:17;;;;;;;5.17;2.40;;;;;;;3.52;44.05;101182.68;1780502;77;21288;31
2021/03/06 06:40:51;;;;;;;6.70;2.90;;;;;;;3.55;43.52;101177.76;1770112;78;21607;-49
2021/03/06 06:43:39;;;;;;;6.22;2.42;;;;;;;3.53;43.56;101187.00;1792612;77;21240;31
2021/03/06 07:05:04;;;;;;;4.80;2.50;;;;;;;3.71;41.37;101187.62;1765414;77;21222;31
2021/03/06 07:07:40;;;;;;;6.30;2.62;;;;;;;3.77;41.08;101187.38;1680084;79;21182;31
2021/03/06 07:10:17;;;;;;;8.38;2.30;;;;;;;3.80;41.17;101195.94;1726445;80;21137;31
2021/03/06 07:13:09;;;;;;;5.75;2.83;;;;;;;3.92;40.68;101198.53;1728789;80;21158;-49
2021/03/06 07:24:32;;;;;;;5.45;2.47;;;;;;;4.41;39.21;101199.98;1745228;79;21899;-48
2021/03/06 07:27:24;;;;;;;4.95;2.30;;;;;;;4.36;39.15;101202.81;1757418;78;21241;31
2021/03/06 07:29:53;;;;;;;6.85;3.02;;;;;;;4.36;40.17;101203.25;1778617;78;21301;-49
2021/03/06 07:41:45;;;;;;;6.55;2.65;;;;;;;4.79;39.24;101211.88;1730902;79;21634;31
2021/03/06 07:44:25;;;;;;;5.37;2.65;;;;;;;4.81;37.79;101212.66;1755733;78;21902;31
2021/03/06 07:47:04;;;;;;;5.92;2.70;;;;;;;4.60;38.11;101214.91;1754709;78;21221;31
2021/03/06 07:49:53;;;;;;;5.55;2.90;;;;;;;4.45;38.38;101217.76;1798253;77;21125;31
2021/03/06 07:52:31;;;;;;;5.62;2.60;;;;;;;4.38;39.06;101218.46;1771901;76;21318;31
2021/03/06 08:06:59;;;;;;;5.35;2.80;;;;;;;4.90;39.21;101208.76;1745314;78;21122;-48
2021/03/06 08:09:53;;;;;;;5.70;2.85;;;;;;;5.14;37.63;101212.50;1808578;74;21983;31
2021/03/06 08:24:27;;;;;;;3.87;1.98;;;;;;;4.84;35.75;101210.34;1809539;75;21106;-47
2021/03/06 08:27:10;;;;;;;3.52;2.00;;;;;;;4.83;35.52;101217.38;1776154;76;21311;-48
2021/03/06 08:32:40;;;;;;;6.35;2.27;;;;;;;4.78;35.41;101208.86;1757055;77;21119;-51
2021/03/06 08:41:14;;;;;;;5.12;2.02;;;;;;;4.70;35.72;101209.66;1725808;79;21149;-50
2021/03/06 08:43:42;;;;;;;3.90;2.17;;;;;;;4.76;34.88;101200.20;1753062;76;21656;-50
2021/03/06 08:46:11;;;;;;;3.87;1.67;;;;;;;4.76;36.03;101203.31;1760660;77;21231;-46
2021/03/06 08:48:41;;;;;;;3.02;1.65;;;;;;;4.85;35.68;101201.11;1758016;77;21109;-48
2021/03/06 08:54:39;;;;;;;3.20;1.80;;;;;;;4.99;35.56;101198.33;1799767;76;21165;-48
2021/03/06 09:03:19;;;;;;;3.35;1.50;;;;;;;5.17;34.73;101197.48;1838512;75;21221;-47
2021/03/06 09:09:24;;;;;;;3.30;1.50;;;;;;;5.39;34.67;101203.01;1814712;76;21137;31
2021/03/06 09:12:07;;;;;;;6.00;1.50;;;;;;;5.51;34.01;101198.10;1799524;76;21388;31
2021/03/06 09:14:40;;;;;;;3.77;1.55;;;;;;;5.53;32.96;101194.94;1815889;76;21385;-47
2021/03/06 09:17:14;;;;;;;3.92;1.35;;;;;;;5.40;33.22;101186.81;1783962;77;21119;31
2021/03/06 09:19:43;;;;;;;2.95;1.40;;;;;;;5.39;33.31;101187.25;1773966;75;21158;-46
2021/03/06 09:22:11;;;;;;;2.70;1.32;;;;;;;5.47;33.57;101200.88;1783217;76;21271;-47
2021/03/06 09:24:50;;;;;;;2.50;1.30;;;;;;;5.61;32.46;101192.80;1818854;75;21388;-49
2021/03/06 09:27:24;;;;;;;2.87;1.32;;;;;;;5.56;32.69;101192.16;1770416;75;21106;31
2021/03/06 10:02:54;;;;;;;2.85;1.10;;;;;;;5.89;31.19;101180.46;1785560;77;21161;-49
2021/03/06 10:08:55;;;;;;;3.40;1.50;;;;;;;5.52;31.37;101185.36;1780576;76;21003;-49
2021/03/06 10:22:26;;;;;;;2.92;1.27;;;;;;;4.58;32.42;101170.42;1810863;75;25865;-47
2021/03/06 10:25:03;;;;;;;3.67;1.70;;;;;;;4.34;32.72;101169.27;1779262;77;21120;31
2021/03/06 10:33:46;;;;;;;4.83;2.10;;;;;;;3.83;34.10;101166.17;1731804;77;21595;31
2021/03/06 10:36:17;;;;;;;5.47;2.95;;;;;;;3.75;34.02;101166.94;1769318;76;21440;-46
2021/03/06 10:38:45;;;;;;;4.58;2.00;;;;;;;3.64;34.11;101155.13;1766158;76;21248;-48
2021/03/06 10:47:20;;;;;;;5.00;1.72;;;;;;;3.50;34.63;101153.09;1731175;77;22836;31
2021/03/06 10:49:50;;;;;;;4.87;1.57;;;;;;;3.48;35.39;101149.68;1751439;75;21278;-46
2021/03/06 10:55:43;;;;;;;2.27;1.17;;;;;;;3.49;35.21;101146.15;1746177;76;22055;-47
2021/03/06 10:58:11;;;;;;;4.42;1.90;;;;;;;3.45;35.21;101141.95;1772113;75;21871;-48
2021/03/06 11:00:56;;;;;;;4.30;1.62;;;;;;;3.38;35.74;101145.25;1756803;75;21321;31
2021/03/06 11:03:24;;;;;;;3.08;1.67;;;;;;;3.40;35.70;101142.12;1749826;76;21233;-49
2021/03/06 11:05:58;;;;;;;4.70;1.90;;;;;;;3.61;35.82;101138.24;1735629;76;21338;-47
2021/03/06 11:08:26;;;;;;;5.92;2.25;;;;;;;3.90;35.49;101149.28;1761554;75;21388;-47
2021/03/06 11:14:27;;;;;;;4.33;2.55;;;;;;;4.43;36.03;101133.91;1755716;76;21481;31
2021/03/06 11:16:56;;;;;;;5.80;1.90;;;;;;;4.49;33.94;101127.56;1767858;76;22519;31
2021/03/06 11:19:25;;;;;;;3.40;2.00;;;;;;;4.28;33.46;101131.52;1719015;77;21532;-50
2021/03/06 11:21:59;;;;;;;7.40;2.42;;;;;;;4.03;34.03;101130.43;1771018;77;22405;31
2021/03/06 11:24:27;;;;;;;6.70;2.65;;;;;;;3.82;34.78;101129.95;1765861;77;21303;-47
2021/03/06 11:26:58;;;;;;;6.17;2.22;;;;;;;3.67;35.55;101130.61;1749278;77;21931;31
2021/03/06 11:29:28;;;;;;;6.78;2.25;;;;;;;3.60;34.87;101129.99;1777279;77;22397;-47
2021/03/06 11:31:56;;;;;;;6.92;2.00;;;;;;;3.51;35.60;101132.98;1743325;78;21295;-48
2021/03/06 11:34:26;;;;;;;7.20;2.47;;;;;;;3.37;35.93;101129.63;1770579;77;23420;31
2021/03/06 11:37:02;;;;;;;7.72;2.45;;;;;;;3.29;36.29;101123.84;1772704;77;21251;31
2021/03/06 11:39:30;;;;;;;5.05;2.20;;;;;;;3.21;36.28;101125.44;1766041;77;22858;-46
2021/03/06 11:45:29;;;;;;;4.80;1.90;;;;;;;3.17;35.43;101127.81;1774529;77;21216;31
2021/03/06 11:48:01;;;;;;;4.42;2.22;;;;;;;3.38;35.95;101123.48;1739232;77;21435;31
2021/03/06 11:50:43;;;;;;;4.15;2.00;;;;;;;3.59;35.93;101114.36;1727730;78;21568;31
2021/03/06 11:53:13;;;;;;;4.47;2.10;;;;;;;3.68;34.73;101114.82;1786024;76;22494;31
2021/03/06 11:55:42;;;;;;;3.30;1.72;;;;;;;3.53;34.01;101112.39;1772111;77;21197;-47
2021/03/06 11:58:10;;;;;;;4.60;2.25;;;;;;;3.37;35.12;101110.83;1769895;77;22528;-46
2021/03/06 12:00:38;;;;;;;4.33;2.05;;;;;;;3.36;36.22;101105.67;1765572;77;21287;-47
2021/03/06 12:06:33;;;;;;;5.47;2.12;;;;;;;3.50;36.69;101110.34;1751137;77;21865;-48
2021/03/06 12:12:19;;;;;;;4.97;2.17;;;;;;;3.52;35.98;101115.05;1802116;75;21252;-48
2021/03/06 12:14:57;;;;;;;7.60;2.58;;;;;;;3.38;36.45;101119.55;1830836;74;21927;31
2021/03/06 12:17:29;;;;;;;4.62;2.08;;;;;;;3.19;36.70;101111.56;1837343;74;21271;31
2021/03/06 12:20:01;;;;;;;7.77;3.13;;;;;;;3.05;36.67;101123.45;1843565;74;21374;31
2021/03/06 12:22:37;;;;;;;3.75;2.35;;;;;;;2.95;37.19;101122.10;1846882;74;21132;31
2021/03/06 12:25:12;;;;;;;4.87;2.00;;;;;;;2.92;38.79;101130.06;1839163;74;21256;31
2021/03/06 12:27:40;;;;;;;6.42;2.65;;;;;;;2.89;40.42;101128.87;1842639;74;21384;-48
2021/03/06 12:33:33;;;;;;;6.53;2.22;;;;;;;3.19;40.87;101120.72;1815852;74;21432;-51
2021/03/06 12:36:03;;;;;;;4.53;2.40;;;;;;;3.31;40.13;101108.46;1841630;74;22491;31
2021/03/06 12:38:31;;;;;;;4.50;2.50;;;;;;;3.38;39.78;101108.61;1844045;74;21145;-47
2021/03/06 12:41:03;;;;;;;7.97;3.25;;;;;;;3.42;39.33;101104.56;1791614;74;21259;31
2021/03/06 12:43:32;;;;;;;4.70;2.30;;;;;;;3.42;38.62;101113.72;1807007;74;21203;-48
2021/03/06 12:46:17;;;;;;;4.58;2.30;;;;;;;3.28;38.41;101113.82;1800214;74;21313;31
2021/03/06 12:48:46;;;;;;;4.72;2.60;;;;;;;3.04;39.31;101125.67;1808491;74;21293;-48
2021/03/06 12:51:27;;;;;;;6.03;3.02;;;;;;;2.84;40.77;101134.26;1798666;74;21516;31
2021/03/06 12:53:56;;;;;;;5.90;2.60;;;;;;;2.69;41.40;101157.92;1786353;74;22314;-48
2021/03/06 12:56:27;;;;;;;5.40;2.75;;;;;;;2.50;47.49;101153.83;1784550;74;21558;31
2021/03/06 13:02:36;;;;;;;;;;;;;;;1.96;50.32;101188.34;1795034;74;21283;-48
2021/03/06 13:05:05;;;;;;;5.62;2.70;;;;;;;1.67;55.53;101189.67;1789045;74;20285;-49
2021/03/06 13:07:34;;;;;;;9.15;2.85;;;;;;;1.41;57.33;101183.54;1809558;76;21677;-48
2021/03/06 13:10:03;;;;;;;5.17;2.52;;;;;;;1.18;58.90;101193.34;1816691;76;22415;-46
2021/03/06 13:12:32;;;;;;;6.53;3.20;;;;;;;1.00;59.56;101200.84;1785621;76;22472;-48
2021/03/06 13:15:03;;;;;;;11.83;4.67;;;;;;;0.86;60.16;101205.59;1782666;75;21186;-50
2021/03/06 13:18:01;;;;;;;7.08;3.60;;;;;;;0.73;60.94;101206.37;1760694;78;22865;31
2021/03/06 13:26:35;;;;;;;7.37;3.22;;;;;;;0.54;64.53;101160.44;1688074;80;21259;31
2021/03/06 13:29:04;;;;;;;8.08;3.55;;;;;;;0.72;62.16;101156.02;1747762;78;21080;-49
2021/03/06 13:31:32;;;;;;;9.38;3.20;;;;;;;0.86;61.75;101156.08;1712092;79;21153;-48
2021/03/06 13:42:35;;;;;;;6.55;3.60;;;;;;;1.49;59.17;101149.37;1733916;80;21111;-47
2021/03/06 13:48:23;;;;;;;9.48;3.95;;;;;;;1.31;58.54;101145.13;1751930;78;21127;31
2021/03/06 13:50:54;;;;;;;8.50;4.10;;;;;;;1.18;58.95;101147.71;1757089;78;21267;-48
2021/03/06 13:53:22;;;;;;;9.43;3.83;;;;;;;1.16;59.44;101144.30;1758312;79;21183;-48
2021/03/06 13:59:17;;;;;;;11.83;5.03;;;;;;;1.48;58.88;101142.44;1735767;79;21161;31
2021/03/06 14:01:48;;;;;;;9.93;4.30;;;;;;;1.71;58.21;101142.99;1732219;80;21325;31
2021/03/06 14:04:18;;;;;;;5.47;2.35;;;;;;;1.91;57.23;101143.66;1720246;80;21303;31
2021/03/06 14:06:53;;;;;;;10.38;4.08;;;;;;;2.08;54.75;101143.97;1737647;78;21274;31
2021/03/06 14:09:23;;;;;;;15.70;6.47;;;;;;;2.17;53.63;101138.43;1735834;79;21118;-49
2021/03/06 14:11:51;;;;;;;6.78;2.70;;;;;;;2.20;52.62;101144.39;1748976;78;21139;-49
2021/03/06 14:14:20;;;;;;;5.17;3.20;;;;;;;2.13;51.18;101139.44;1750046;78;21262;-48
2021/03/06 14:20:22;;;;;;;5.05;2.52;;;;;;;1.88;49.90;101141.58;1743603;78;21170;31
2021/03/06 14:22:50;;;;;;;5.25;2.58;;;;;;;1.68;49.05;101138.34;1726980;77;21243;-49
2021/03/06 14:28:48;;;;;;;3.75;1.60;;;;;;;1.63;48.96;101142.39;1693976;80;21140;31
2021/03/06 14:31:17;;;;;;;7.35;2.12;;;;;;;1.70;47.75;101136.53;1663844;83;21710;-47
2021/03/06 14:37:10;;;;;;;4.95;2.92;;;;;;;1.70;46.34;101147.81;1737054;79;21140;31
2021/03/06 14:39:38;;;;;;;9.05;5.25;;;;;;;1.65;47.19;101149.72;1712823;78;21145;-48
2021/03/06 14:45:25;;;;;;;4.00;2.05;;;;;;;1.53;48.70;101143.15;1752011;79;21136;31
2021/03/06 14:47:54;;;;;;;7.03;2.55;;;;;;;1.47;49.51;101152.48;1741152;80;21166;-48
2021/03/06 14:50:23;;;;;;;6.92;3.37;;;;;;;1.43;49.88;101156.95;1742901;80;21134;-47
2021/03/06 14:52:51;;;;;;;5.97;2.70;;;;;;;1.39;49.52;101161.00;1742480;80;21270;-47
2021/03/06 14:55:22;;;;;;;5.00;2.77;;;;;;;1.32;48.93;101158.58;1743405;80;21132;-47
2021/03/06 14:57:50;;;;;;;4.78;2.45;;;;;;;1.26;48.50;101154.85;1759921;79;21383;-47
2021/03/06 15:00:19;;;;;;;4.90;2.85;;;;;;;1.21;48.62;101161.97;1760536;79;21121;-48
2021/03/06 15:06:08;;;;;;;3.52;2.25;;;;;;;1.06;48.55;101167.20;1749735;78;21143;31
2021/03/06 15:08:37;;;;;;;3.35;1.82;;;;;;;0.98;48.74;101171.79;1753525;81;21311;-49
2021/03/06 15:14:36;;;;;;;9.95;1.92;;;;;;;0.92;49.37;101174.14;1744232;80;21185;31
2021/03/06 15:26:21;;;;;;;5.90;2.75;;;;;;;0.81;49.34;101186.16;1757091;79;21120;31
2021/03/06 15:28:49;;;;;;;4.95;2.22;;;;;;;0.79;49.32;101197.55;1740119;78;21140;-48
2021/03/06 15:31:17;;;;;;;5.97;2.60;;;;;;;0.78;49.28;101191.92;1743390;79;21123;-48
2021/03/06 15:40:41;;;;;;;9.00;4.55;;;;;;;0.70;48.27;101202.11;1744817;80;21140;31
2021/03/06 15:43:10;;;;;;;8.83;4.10;;;;;;;0.67;48.00;101203.50;1726252;81;21117;-47
2021/03/06 15:49:11;;;;;;;5.92;3.05;;;;;;;0.65;48.42;101207.03;1734576;79;22027;-48
2021/03/06 15:51:39;;;;;;;6.33;3.08;;;;;;;0.61;47.70;101209.31;1744587;80;21169;-48
2021/03/06 15:57:17;;;;;;;8.40;3.77;;;;;;;0.47;48.06;101213.61;1718676;79;21144;-49
2021/03/06 16:03:04;;;;;;;9.55;4.08;;;;;;;0.30;48.42;101214.90;1706910;80;22126;-49
2021/03/06 16:05:47;;;;;;;10.03;4.37;;;;;;;0.22;48.35;101216.41;1702535;81;21262;31
2021/03/06 16:14:39;;;;;;;15.35;7.20;;;;;;;0.18;48.91;101226.93;1660208;80;22246;-49
2021/03/06 16:20:10;;;;;;;12.70;5.57;;;;;;;0.07;48.72;101239.77;1675112;82;21142;31
2021/03/06 16:22:41;;;;;;;14.25;6.75;;;;;;;0.01;48.39;101233.87;1681161;82;21298;31
2021/03/06 16:28:14;;;;;;;14.93;5.87;;;;;;;-0.11;48.51;101238.94;1716611;81;21129;31
2021/03/06 16:30:42;;;;;;;10.45;5.17;;;;;;;-0.18;48.72;101238.20;1721696;80;21149;-48
2021/03/06 16:33:17;;;;;;;12.85;5.65;;;;;;;-0.19;48.64;101245.60;1699259;80;21079;31
2021/03/06 16:35:50;;;;;;;13.75;5.42;;;;;;;-0.21;48.38;101246.08;1726457;79;21563;-49
2021/03/06 16:41:35;;;;;;;13.22;5.97;;;;;;;-0.26;48.29;101251.41;1735049;81;21055;-48
2021/03/06 16:47:20;;;;;;;10.40;4.58;;;;;;;-0.31;48.50;101261.06;1707394;80;21195;-48
2021/03/06 16:49:49;;;;;;;14.45;6.33;;;;;;;-0.33;48.42;101264.14;1717576;80;21591;-49
2021/03/06 16:55:44;;;;;;;13.22;5.67;;;;;;;-0.35;48.46;101262.86;1687284;81;21158;31
2021/03/06 16:58:13;;;;;;;13.00;6.33;;;;;;;-0.39;48.50;101261.22;1681799;83;21438;-49
2021/03/06 17:03:40;;;;;;;17.48;7.92;;;;;;;-0.45;48.62;101268.73;1675278;81;22140;-49
2021/03/06 17:09:33;;;;;;;16.42;7.70;;;;;;;-0.47;48.76;101263.13;1733554;78;20253;31
2021/03/06 17:14:56;;;;;;;18.40;8.98;;;;;;;-0.53;48.86;101270.64;1725100;79;21668;-48
2021/03/06 17:17:45;;;;;;;18.65;8.15;;;;;;;-0.52;48.94;101269.75;1718006;80;21893;31
2021/03/06 17:20:28;;;;;;;16.67;8.28;;;;;;;-0.52;48.89;101269.75;1713040;81;21156;31
2021/03/06 17:22:56;;;;;;;18.05;8.53;;;;;;;-0.52;48.87;101267.15;1721733;78;21200;-47
2021/03/06 17:28:43;;;;;;;14.20;6.60;;;;;;;-0.53;49.26;101279.74;1740269;78;21137;-49
2021/03/06 17:31:11;;;;;;;13.78;6.58;;;;;;;-0.53;49.28;101275.84;1749930;79;21378;-48
2021/03/06 17:40:12;;;;;;;15.28;6.90;;;;;;;-0.68;49.41;101287.86;1715759;79;21900;-49
2021/03/06 17:42:40;;;;;;;18.73;8.13;;;;;;;-0.73;49.38;101291.00;1746857;78;21412;-49
2021/03/06 17:45:38;;;;;;;16.20;7.17;;;;;;;-0.79;49.39;101303.23;1736666;78;21024;-49
2021/03/06 17:48:23;;;;;;;18.92;7.58;;;;;;;-0.86;49.46;101298.20;1723720;80;21133;-49
2021/03/06 17:50:52;;;;;;;19.00;7.65;;;;;;;-0.89;49.54;101297.80;1739895;79;21130;-49
2021/03/06 18:05:43;;;;;;;15.25;7.45;;;;;;;-0.98;49.24;101292.78;1741156;78;21873;-49
2021/03/06 18:08:12;;;;;;;15.58;7.40;;;;;;;-1.02;49.40;101287.23;1754980;80;21124;-49
2021/03/06 18:56:43;;;;;;;14.98;5.00;;;;;;;-1.45;51.74;101305.33;1719658;80;21106;-50
2021/03/06 18:59:13;;;;;;;14.00;5.72;;;;;;;-1.47;51.81;101305.80;1703092;81;21635;-49
2021/03/06 19:01:43;;;;;;;13.22;6.37;;;;;;;-1.50;51.88;101304.09;1726715;80;21731;31
2021/03/06 19:07:13;;;;;;;11.08;5.28;;;;;;;-1.52;51.91;101307.62;1660903;84;21843;-49
2021/03/06 19:25:13;;;;;;;19.73;7.08;;;;;;;-1.77;52.54;101315.80;1726093;81;21681;-50
2021/03/06 19:45:58;;;;;;;16.73;7.30;;;;;;;-2.24;54.21;101310.44;1729778;79;21617;-49
2021/03/06 19:48:26;;;;;;;13.72;6.47;;;;;;;-2.28;54.28;101309.64;1743369;79;21229;-48
2021/03/06 19:51:15;;;;;;;22.30;9.50;;;;;;;-2.31;54.43;101313.58;1739407;79;21278;31
2021/03/06 19:53:44;;;;;;;22.13;9.75;;;;;;;-2.31;54.35;101317.47;1643378;85;21154;-49
2021/03/06 20:14:54;;;;;;;12.77;4.93;;;;;;;-2.38;54.98;101314.53;1710338;80;21294;31
2021/03/06 20:23:13;;;;;;;10.55;4.60;;;;;;;-2.57;55.87;101317.36;1726606;78;21668;-51
2021/03/06 20:25:43;;;;;;;11.75;5.53;;;;;;;-2.53;56.00;101321.63;1694871;81;22140;-49
2021/03/06 20:28:14;;;;;;;9.05;4.97;;;;;;;-2.56;56.14;101316.91;1718403;79;21127;31
2021/03/06 20:45:44;;;;;;;21.45;8.38;;;;;;;-2.77;57.18;101315.02;1752874;78;21654;-49
2021/03/06 20:48:14;;;;;;;20.80;9.20;;;;;;;-2.83;57.46;101312.50;1743025;79;21117;-49
2021/03/06 20:50:45;;;;;;;20.52;9.35;;;;;;;-2.84;57.74;101312.08;1725524;79;21275;31
2021/03/06 20:53:13;;;;;;;20.48;9.65;;;;;;;-2.78;57.87;101310.71;1711132;80;21954;-49
2021/03/06 20:55:43;;;;;;;26.10;11.43;;;;;;;-2.69;57.84;101312.32;1759520;78;21187;-49
2021/03/06 20:58:16;;;;;;;33.92;13.78;;;;;;;-2.69;57.72;101312.32;1769433;78;21236;31
2021/03/06 21:00:44;;;;;;;27.67;12.50;;;;;;;-2.76;57.89;101306.79;1717863;78;21560;-49
2021/03/06 21:03:13;;;;;;;28.47;10.90;;;;;;;-2.83;58.10;101310.75;1723610;78;21652;-49
2021/03/06 21:05:44;;;;;;;28.32;12.25;;;;;;;-2.86;58.33;101315.97;1746440;78;21240;31
2021/03/06 21:20:13;;;;;;;25.88;9.35;;;;;;;-2.84;58.73;101304.30;1759010;78;21418;-50
2021/03/06 21:22:45;;;;;;;17.85;8.43;;;;;;;-2.86;59.01;101303.01;1775818;78;21174;-48
2021/03/06 21:25:14;;;;;;;22.90;9.33;;;;;;;-2.89;59.06;101297.86;1760558;79;22021;-49
2021/03/06 21:27:43;;;;;;;21.23;9.35;;;;;;;-2.95;59.26;101300.52;1746754;78;21130;-49
2021/03/06 21:30:13;;;;;;;22.22;9.18;;;;;;;-2.99;59.45;101304.02;1759119;78;21480;-49
2021/03/06 21:32:43;;;;;;;13.73;6.63;;;;;;;-3.02;59.70;101304.92;1709015;81;21385;31
2021/03/06 21:35:13;;;;;;;25.37;10.15;;;;;;;-3.04;59.83;101301.91;1698347;78;21424;-50
2021/03/06 21:56:10;;;;;;;25.60;10.58;;;;;;;-3.24;60.65;101293.95;1750040;78;20971;-49
2021/03/06 21:58:39;;;;;;;18.25;8.93;;;;;;;-3.34;60.94;101286.69;1757705;78;21551;-49
2021/03/06 22:01:16;;;;;;;16.20;8.05;;;;;;;-3.42;61.13;101280.30;1738861;79;21410;31
2021/03/06 22:03:46;;;;;;;19.87;7.70;;;;;;;-3.47;61.40;101278.19;1655559;85;21197;-49
2021/03/06 22:33:43;;;;;;;6.50;4.08;;;;;;;-3.52;63.18;101245.45;1732739;78;21201;-49
2021/03/06 22:36:11;;;;;;;12.65;5.30;;;;;;;-3.50;63.28;101252.76;1740052;81;21133;-49
2021/03/06 22:57:29;;;;;;;8.15;4.10;;;;;;;-3.48;64.17;101234.19;1714205;80;22077;-49
2021/03/06 23:00:16;;;;;;;7.97;3.75;;;;;;;-3.48;64.24;101240.23;1751585;78;21348;31
2021/03/06 23:02:44;;;;;;;7.78;4.00;;;;;;;-3.47;64.37;101236.78;1692716;83;21174;-49
2021/03/06 23:05:14;;;;;;;8.23;3.70;;;;;;;-3.46;64.58;101231.15;1719024;80;21213;-49
2021/03/06 23:07:43;;;;;;;10.28;3.83;;;;;;;-3.41;64.65;101240.59;1714425;80;21251;31
2021/03/06 23:16:14;;;;;;;9.13;4.03;;;;;;;-3.36;65.05;101220.28;1682959;81;21572;-49
2021/03/06 23:18:49;;;;;;;10.58;4.40;;;;;;;-3.34;65.16;101223.71;1743477;77;21298;-49
2021/03/06 23:21:17;;;;;;;9.65;3.92;;;;;;;-3.34;65.27;101223.71;1807412;77;21251;-49
2021/03/06 23:26:43;;;;;;;11.10;3.90;;;;;;;-3.37;65.69;101226.33;1767860;78;21196;-49
2021/03/06 23:29:13;;;;;;;10.25;4.55;;;;;;;-3.42;66.10;101228.53;1781016;78;21049;-49
2021/03/06 23:31:43;;;;;;;11.28;4.75;;;;;;;-3.42;66.34;101231.13;1796834;78;21100;31
2021/03/06 23:37:16;;;;;;;11.68;4.45;;;;;;;-3.40;66.55;101227.20;1785086;78;21102;-49
2021/03/06 23:39:44;;;;;;;8.28;4.37;;;;;;;-3.41;66.61;101223.77;1750996;79;21568;-49
2021/03/06 23:42:14;;;;;;;14.60;6.05;;;;;;;-3.40;66.79;101227.20;1760801;79;21281;31
2021/03/06 23:44:43;;;;;;;13.22;4.72;;;;;;;-3.37;66.90;101222.45;1687796;81;21408;-50
2021/03/06 23:47:12;;;;;;;16.32;5.90;;;;;;;-3.36;66.96;101218.53;1723400;80;21581;-49
2021/03/06 23:49:44;;;;;;;16.60;5.87;;;;;;;-3.35;67.12;101214.23;1742660;79;21253;31
